Time;durP1;ratioP1;P1;durP2;ratioP2;P2;SDS_P1;SDS_P2;PMS_P1;PMS_P2;Temp;Humidity;BMP_temperature;BMP_pressure;BME280_temperature;BME280_humidity;BME280_pressure;Samples;Min_cycle;Max_cycle;Signal;HPM_P1;HPM_P2
2022/05/15 00:01:54;;;;;;;30.97;5.93;;;15.40;19.60;;;;;;5024416;28;20948;-58
2022/05/15 00:04:21;;;;;;;31.00;4.97;;;15.30;19.80;;;;;;5025830;28;20461;-58
2022/05/15 00:06:48;;;;;;;33.77;5.87;;;15.30;20.00;;;;;;5025774;28;20847;-58
2022/05/15 00:09:15;;;;;;;29.60;4.67;;;15.30;20.00;;;;;;5025998;28;20462;-58
2022/05/15 00:11:43;;;;;;;31.97;5.20;;;15.20;19.70;;;;;;5026303;28;20473;-59
2022/05/15 00:14:10;;;;;;;29.63;4.73;;;15.20;19.50;;;;;;5024985;28;20463;-58
2022/05/15 00:16:37;;;;;;;32.40;5.37;;;15.20;19.30;;;;;;5027722;28;20459;-59
2022/05/15 00:19:04;;;;;;;30.43;5.40;;;15.20;19.70;;;;;;5025473;28;21172;-59
2022/05/15 00:21:31;;;;;;;30.20;4.77;;;15.20;19.80;;;;;;5026989;28;21005;-58
2022/05/15 00:23:58;;;;;;;33.30;5.10;;;15.10;19.70;;;;;;5028391;28;20495;-58
2022/05/15 00:26:24;;;;;;;32.33;4.60;;;15.10;19.80;;;;;;5028564;28;20483;-59
2022/05/15 00:28:52;;;;;;;29.60;4.27;;;15.10;19.70;;;;;;5022446;28;20495;-59
2022/05/15 00:31:20;;;;;;;29.07;4.23;;;15.00;19.50;;;;;;5028138;28;20474;-58
2022/05/15 00:33:47;;;;;;;31.37;4.83;;;15.00;19.40;;;;;;5028007;28;20467;-59
2022/05/15 00:36:14;;;;;;;30.87;5.50;;;15.00;19.30;;;;;;5029632;28;20465;-58
2022/05/15 00:38:40;;;;;;;28.70;4.50;;;15.00;19.30;;;;;;5019711;28;20487;-59
2022/05/15 00:41:08;;;;;;;31.07;5.20;;;14.90;19.40;;;;;;5017971;28;21031;-59
2022/05/15 00:43:40;;;;;;;29.30;5.53;;;14.90;19.60;;;;;;5026361;28;20482;-59
2022/05/15 00:46:11;;;;;;;28.83;4.20;;;14.90;19.80;;;;;;5029710;28;20483;-59
2022/05/15 00:48:38;;;;;;;32.70;5.07;;;14.80;20.00;;;;;;5026715;28;20562;-59
2022/05/15 00:51:12;;;;;;;29.30;4.37;;;14.70;20.00;;;;;;5028471;28;20471;-59
2022/05/15 00:53:40;;;;;;;30.80;5.40;;;14.70;20.20;;;;;;5029060;28;20836;-56
2022/05/15 00:56:08;;;;;;;30.23;5.00;;;14.70;20.10;;;;;;5028298;28;20960;-59
2022/05/15 00:58:39;;;;;;;30.07;4.87;;;14.70;20.10;;;;;;5029046;28;20479;-59
2022/05/15 01:01:08;;;;;;;30.70;5.10;;;14.70;20.20;;;;;;5026983;28;20529;-59
2022/05/15 01:03:35;;;;;;;32.27;4.90;;;14.60;20.20;;;;;;5028630;28;20463;-58
2022/05/15 01:06:02;;;;;;;30.47;5.30;;;14.60;20.20;;;;;;5026680;28;20505;-59
2022/05/15 01:08:30;;;;;;;30.27;5.20;;;14.60;20.40;;;;;;5028298;28;20482;-58
2022/05/15 01:11:01;;;;;;;30.60;5.10;;;14.60;20.30;;;;;;5028465;28;20474;-59
2022/05/15 01:13:31;;;;;;;30.60;5.17;;;14.60;20.60;;;;;;5027842;28;20524;-59
2022/05/15 01:15:58;;;;;;;30.73;5.73;;;14.60;20.90;;;;;;5028046;28;21097;-58
2022/05/15 01:18:32;;;;;;;33.23;5.60;;;14.60;21.00;;;;;;5025877;28;20493;-59
2022/05/15 01:21:01;;;;;;;30.57;5.30;;;14.60;21.30;;;;;;5028613;28;20558;-59
2022/05/15 01:23:29;;;;;;;30.80;5.73;;;14.60;21.20;;;;;;5022550;28;20961;-59
2022/05/15 01:25:58;;;;;;;31.40;6.20;;;14.50;21.30;;;;;;5023838;28;20476;-58
2022/05/15 01:28:27;;;;;;;29.73;5.80;;;14.50;21.40;;;;;;5027103;28;20494;-59
2022/05/15 01:30:57;;;;;;;29.47;5.33;;;14.50;21.70;;;;;;5025573;28;21183;-59
2022/05/15 01:33:24;;;;;;;29.63;5.80;;;14.50;21.60;;;;;;5027682;28;20473;-58
2022/05/15 01:35:51;;;;;;;29.87;6.40;;;14.40;21.70;;;;;;5027972;28;20457;-59
2022/05/15 01:38:19;;;;;;;30.17;6.80;;;14.40;22.60;;;;;;5025979;28;20490;-59
2022/05/15 01:40:47;;;;;;;31.17;7.57;;;14.30;22.80;;;;;;5027147;28;21007;-58
2022/05/15 01:43:14;;;;;;;31.77;6.73;;;14.20;22.80;;;;;;5023146;28;20455;-59
2022/05/15 01:45:41;;;;;;;29.90;6.57;;;14.30;22.80;;;;;;5025857;28;20485;-59
2022/05/15 01:48:08;;;;;;;28.90;5.97;;;14.20;22.60;;;;;;5021917;28;20505;-59
2022/05/15 01:50:35;;;;;;;31.23;6.07;;;14.20;22.60;;;;;;5026843;28;20458;-58
2022/05/15 01:53:02;;;;;;;28.70;6.10;;;14.20;22.70;;;;;;5024309;28;20474;-59
2022/05/15 01:55:30;;;;;;;29.73;5.57;;;14.20;22.90;;;;;;5025692;28;20467;-59
2022/05/15 01:57:57;;;;;;;28.43;6.00;;;14.10;23.30;;;;;;5014431;28;20482;-58
2022/05/15 02:00:26;;;;;;;29.80;6.10;;;14.00;23.30;;;;;;5026873;28;20463;-58
2022/05/15 02:02:53;;;;;;;32.30;6.17;;;14.00;23.60;;;;;;5025241;28;20554;-59
2022/05/15 02:05:21;;;;;;;29.57;5.87;;;14.00;23.50;;;;;;5026692;28;20470;-58
2022/05/15 02:07:48;;;;;;;29.97;6.27;;;13.90;23.50;;;;;;5022041;28;20487;-59
2022/05/15 02:10:16;;;;;;;36.57;6.30;;;13.90;23.40;;;;;;5027942;28;20492;-59
2022/05/15 02:12:45;;;;;;;29.90;6.27;;;13.90;23.60;;;;;;5015515;28;20543;-59
2022/05/15 02:15:13;;;;;;;28.90;6.20;;;13.90;23.90;;;;;;5026198;28;20451;-58
2022/05/15 02:17:40;;;;;;;28.23;5.73;;;13.80;24.40;;;;;;5025240;28;20497;-58
2022/05/15 02:20:11;;;;;;;27.63;4.73;;;13.80;24.50;;;;;;5027119;28;20594;-59
2022/05/15 02:22:38;;;;;;;30.10;5.93;;;13.70;24.50;;;;;;5025699;28;20543;-58
2022/05/15 02:25:06;;;;;;;30.77;5.80;;;13.70;24.20;;;;;;5026880;28;20455;-58
2022/05/15 02:27:33;;;;;;;30.20;5.03;;;13.70;24.20;;;;;;5025817;28;20491;-58
2022/05/15 02:30:01;;;;;;;29.40;4.60;;;13.70;23.90;;;;;;5026952;28;20470;-58
2022/05/15 02:32:28;;;;;;;30.53;5.73;;;13.70;23.90;;;;;;5026672;28;20474;-57
2022/05/15 02:34:55;;;;;;;29.77;6.20;;;13.60;23.70;;;;;;5022124;28;20482;-58
2022/05/15 02:37:22;;;;;;;30.20;5.20;;;13.60;23.80;;;;;;5024549;28;20479;-58
2022/05/15 02:39:48;;;;;;;29.40;5.17;;;13.60;23.80;;;;;;5028635;28;20977;-58
2022/05/15 02:42:15;;;;;;;29.03;5.10;;;13.60;23.70;;;;;;5033445;28;20467;-59
2022/05/15 02:44:42;;;;;;;29.50;5.50;;;13.60;23.90;;;;;;5030428;28;20471;-57
2022/05/15 02:47:10;;;;;;;35.63;5.67;;;13.60;23.90;;;;;;5031771;28;20498;-59
2022/05/15 02:52:21;;;;;;;31.60;5.90;;;13.60;23.80;;;;;;5023804;28;20515;-59
2022/05/15 02:54:48;;;;;;;30.37;5.07;;;13.50;24.00;;;;;;5025879;28;20459;-60
2022/05/15 02:57:15;;;;;;;32.27;5.27;;;13.50;24.00;;;;;;5027337;28;20471;-57
2022/05/15 02:59:41;;;;;;;30.27;5.43;;;13.50;24.10;;;;;;5025585;28;20470;-58
2022/05/15 03:02:10;;;;;;;30.43;5.50;;;13.50;24.00;;;;;;5025144;28;20484;-58
2022/05/15 03:04:37;;;;;;;30.10;5.40;;;13.50;24.00;;;;;;5024988;28;20485;-59
2022/05/15 03:07:05;;;;;;;31.00;5.50;;;13.50;24.10;;;;;;5027153;28;20624;-59
2022/05/15 03:09:33;;;;;;;30.23;6.27;;;13.50;24.30;;;;;;5029989;28;20962;-59
2022/05/15 03:12:00;;;;;;;30.97;5.83;;;13.40;24.20;;;;;;5030792;28;20455;-59
2022/05/15 03:14:26;;;;;;;31.90;6.90;;;13.40;24.40;;;;;;5029962;28;20468;-58
2022/05/15 03:16:53;;;;;;;30.17;5.80;;;13.40;24.90;;;;;;5026977;28;20468;-60
2022/05/15 03:19:21;;;;;;;30.30;6.10;;;13.30;25.30;;;;;;5031144;28;20463;-57
2022/05/15 03:21:48;;;;;;;29.80;6.17;;;13.30;25.20;;;;;;5029505;28;20469;-59
2022/05/15 03:24:15;;;;;;;28.60;6.10;;;13.20;25.10;;;;;;5030475;28;20470;-59
2022/05/15 03:26:44;;;;;;;28.10;5.83;;;13.30;25.10;;;;;;5028958;28;21004;-59
2022/05/15 03:29:12;;;;;;;28.73;5.77;;;13.20;25.30;;;;;;5030280;28;20454;-60
2022/05/15 03:31:40;;;;;;;33.50;6.57;;;13.20;25.50;;;;;;5028590;28;20505;-58
2022/05/15 03:34:09;;;;;;;28.90;5.87;;;13.20;25.60;;;;;;5029492;28;20469;-61
2022/05/15 03:36:38;;;;;;;28.40;5.40;;;13.20;25.70;;;;;;5030131;28;20462;-58
2022/05/15 03:39:07;;;;;;;30.53;6.40;;;13.20;25.80;;;;;;5025078;28;21252;-60
2022/05/15 03:41:34;;;;;;;30.50;5.60;;;13.20;25.70;;;;;;5024125;28;20458;-60
2022/05/15 03:44:01;;;;;;;31.30;6.47;;;13.20;25.80;;;;;;5029937;28;20473;-61
2022/05/15 03:46:28;;;;;;;29.20;5.30;;;13.20;26.00;;;;;;5027642;28;20485;-59
2022/05/15 03:48:54;;;;;;;31.70;6.40;;;13.20;26.30;;;;;;5030756;28;20478;-59
2022/05/15 03:51:21;;;;;;;30.20;6.03;;;13.20;26.40;;;;;;5022962;28;20443;-59
2022/05/15 03:53:50;;;;;;;30.30;5.83;;;13.10;26.40;;;;;;5018754;28;20467;-58
2022/05/15 03:56:16;;;;;;;29.80;6.30;;;13.10;26.50;;;;;;5029230;28;20961;-60
2022/05/15 03:58:44;;;;;;;35.93;6.10;;;13.20;26.20;;;;;;5030099;28;20525;-61
2022/05/15 04:01:10;;;;;;;29.90;5.93;;;13.10;26.90;;;;;;5021876;28;20486;-60
2022/05/15 04:03:37;;;;;;;54.97;6.70;;;13.20;26.50;;;;;;5027731;28;20459;-55
2022/05/15 04:06:04;;;;;;;28.07;6.20;;;13.20;27.00;;;;;;5027483;28;20474;-58
2022/05/15 04:08:31;;;;;;;28.00;6.10;;;13.20;27.00;;;;;;5021880;28;20483;-57
2022/05/15 04:10:59;;;;;;;30.20;5.70;;;13.20;27.70;;;;;;5023538;28;20459;-60
2022/05/15 04:13:26;;;;;;;29.77;7.07;;;13.20;27.30;;;;;;5019659;28;20463;-61
2022/05/15 04:15:53;;;;;;;30.80;6.50;;;13.20;27.20;;;;;;5027713;28;20892;-62
2022/05/15 04:18:20;;;;;;;34.23;6.80;;;13.30;26.80;;;;;;5027095;28;20483;-60
2022/05/15 04:20:47;;;;;;;29.93;5.83;;;13.30;26.70;;;;;;5017934;28;20555;-59
2022/05/15 04:23:13;;;;;;;29.43;5.90;;;13.40;26.40;;;;;;5026589;28;20467;-60
2022/05/15 04:25:40;;;;;;;31.50;6.27;;;13.50;26.70;;;;;;5027549;28;20467;-60
2022/05/15 04:28:08;;;;;;;31.27;6.50;;;13.50;26.60;;;;;;5027647;28;20487;-59
2022/05/15 04:30:35;;;;;;;30.30;5.43;;;13.50;26.30;;;;;;5028853;28;20463;-60
2022/05/15 04:33:02;;;;;;;29.70;5.43;;;13.60;26.80;;;;;;5029369;28;20459;-60
2022/05/15 04:35:29;;;;;;;30.20;6.37;;;13.60;26.40;;;;;;5027232;28;20814;-58
2022/05/15 04:37:56;;;;;;;32.20;5.93;;;13.70;26.40;;;;;;5029557;28;20641;-59
2022/05/15 04:40:22;;;;;;;33.27;6.03;;;13.80;25.90;;;;;;5029873;28;20454;-60
2022/05/15 04:42:49;;;;;;;31.07;5.90;;;13.80;25.70;;;;;;5028289;28;20463;-59
2022/05/15 04:45:18;;;;;;;30.20;5.97;;;13.90;25.40;;;;;;5027604;28;20545;-60
2022/05/15 04:47:45;;;;;;;32.67;5.30;;;13.90;25.40;;;;;;5028302;28;20554;-60
2022/05/15 04:50:12;;;;;;;30.23;5.90;;;14.00;25.60;;;;;;5029776;28;20494;-60
2022/05/15 04:52:39;;;;;;;31.70;6.37;;;14.20;25.60;;;;;;5028382;28;20466;-60
2022/05/15 04:55:06;;;;;;;31.40;6.53;;;14.40;25.40;;;;;;5028071;28;20840;-60
2022/05/15 04:57:34;;;;;;;30.40;5.60;;;14.90;25.00;;;;;;5026354;28;21023;-59
2022/05/15 05:00:00;;;;;;;31.47;5.80;;;15.50;23.20;;;;;;5029914;28;21223;-59
2022/05/15 05:02:29;;;;;;;31.43;6.50;;;16.10;22.00;;;;;;5027822;28;20499;-59
2022/05/15 05:04:59;;;;;;;32.43;4.67;;;16.80;20.40;;;;;;5027954;28;20466;-59
2022/05/15 05:07:26;;;;;;;30.30;5.43;;;17.30;19.00;;;;;;5026708;28;20494;-59
2022/05/15 05:09:53;;;;;;;30.67;4.57;;;17.80;18.20;;;;;;5027872;28;20466;-60
2022/05/15 05:12:19;;;;;;;29.87;4.37;;;18.30;17.60;;;;;;5027023;28;20968;-59
2022/05/15 05:14:46;;;;;;;29.97;5.10;;;18.90;16.10;;;;;;5026283;28;20471;-59
2022/05/15 05:17:13;;;;;;;30.83;4.87;;;19.60;15.10;;;;;;5027617;28;20490;-61
2022/05/15 05:19:42;;;;;;;36.33;5.40;;;20.30;14.20;;;;;;5028315;28;20459;-58
2022/05/15 05:22:09;;;;;;;31.50;4.30;;;21.00;12.90;;;;;;5023878;28;20467;-58
2022/05/15 05:24:35;;;;;;;28.50;3.77;;;21.70;11.90;;;;;;5028187;28;20471;-58
2022/05/15 05:27:03;;;;;;;29.40;4.77;;;22.40;10.70;;;;;;5026735;28;20530;-60
2022/05/15 05:29:29;;;;;;;30.70;4.10;;;22.90;9.40;;;;;;5026455;28;20463;-59
2022/05/15 05:31:56;;;;;;;31.10;4.70;;;23.40;8.80;;;;;;5026047;28;20510;-59
2022/05/15 05:34:23;;;;;;;30.57;4.50;;;23.90;7.40;;;;;;5027934;28;21091;-58
2022/05/15 05:36:51;;;;;;;31.03;4.63;;;24.20;6.90;;;;;;5028376;28;20462;-59
2022/05/15 05:39:18;;;;;;;28.57;3.70;;;24.70;6.70;;;;;;5025936;28;20466;-58
2022/05/15 05:41:44;;;;;;;32.70;4.30;;;25.40;5.60;;;;;;5027209;28;20524;-58
2022/05/15 05:44:11;;;;;;;30.43;4.67;;;26.00;4.80;;;;;;5028318;28;21002;-58
2022/05/15 05:46:39;;;;;;;28.10;4.40;;;26.50;3.90;;;;;;5027889;28;20479;-58
2022/05/15 05:49:05;;;;;;;29.60;4.90;;;27.00;3.40;;;;;;5026815;28;20569;-59
2022/05/15 05:51:32;;;;;;;28.60;4.47;;;27.50;3.20;;;;;;5027757;28;20471;-58
2022/05/15 05:54:00;;;;;;;29.63;4.20;;;27.90;2.80;;;;;;5026607;28;20473;-59
2022/05/15 05:56:27;;;;;;;27.23;4.23;;;28.50;1.90;;;;;;5026558;28;20459;-59
2022/05/15 05:58:54;;;;;;;29.37;4.10;;;28.90;1.00;;;;;;5026351;28;20487;-58
2022/05/15 06:01:20;;;;;;;28.20;4.20;;;29.30;1.00;;;;;;5025926;28;21004;-59
2022/05/15 06:06:31;;;;;;;27.27;4.03;;;30.30;1.00;;;;;;5024354;28;21019;-60
2022/05/15 06:08:59;;;;;;;28.10;3.80;;;30.80;1.00;;;;;;5024838;28;20513;-59
2022/05/15 06:11:26;;;;;;;27.03;3.97;;;31.20;1.00;;;;;;5026886;28;20501;-60
2022/05/15 06:13:53;;;;;;;27.23;4.10;;;31.70;1.00;;;;;;5027161;28;20470;-59
2022/05/15 06:16:20;;;;;;;27.43;3.70;;;32.10;1.00;;;;;;5025728;28;20470;-59
2022/05/15 06:18:46;;;;;;;26.67;3.80;;;32.50;1.00;;;;;;5025977;28;20487;-60
2022/05/15 06:21:13;;;;;;;26.70;4.37;;;32.90;1.00;;;;;;5026379;28;20597;-58
2022/05/15 06:23:40;;;;;;;26.27;3.93;;;33.40;1.00;;;;;;5025963;28;20459;-59
2022/05/15 06:26:08;;;;;;;27.07;4.27;;;33.80;1.00;;;;;;5024028;28;20987;-59
2022/05/15 06:28:35;;;;;;;26.40;3.60;;;34.30;1.00;;;;;;5026561;28;21023;-59
2022/05/15 06:31:02;;;;;;;26.60;4.10;;;34.80;1.00;;;;;;5025530;28;20467;-60
2022/05/15 06:33:29;;;;;;;26.60;3.73;;;35.10;1.00;;;;;;5026797;28;20466;-59
2022/05/15 06:35:56;;;;;;;25.40;4.00;;;35.40;1.00;;;;;;5027475;28;20838;-59
2022/05/15 06:38:23;;;;;;;25.80;3.80;;;35.70;1.00;;;;;;5027152;28;20478;-60
2022/05/15 06:40:50;;;;;;;26.20;4.57;;;36.10;1.00;;;;;;5017187;28;21013;-59
2022/05/15 06:43:18;;;;;;;26.50;4.30;;;36.50;1.00;;;;;;5026471;28;21262;-60
2022/05/15 06:45:47;;;;;;;25.60;3.87;;;36.70;1.00;;;;;;5027016;28;20485;-59
2022/05/15 06:48:14;;;;;;;24.87;3.73;;;37.10;1.00;;;;;;5026309;28;20494;-59
2022/05/15 06:50:41;;;;;;;25.30;3.67;;;37.40;1.00;;;;;;5026947;28;20474;-60
2022/05/15 06:53:11;;;;;;;24.77;4.17;;;37.80;1.00;;;;;;5026129;28;20466;-58
2022/05/15 06:57:28;;;;;;;25.17;3.90;;;38.30;1.00;;;;;;5024771;28;20503;-59
2022/05/15 06:58:26;;;;;;;25.60;3.90;;;38.70;1.00;;;;;;5024880;28;20676;-59
2022/05/15 07:00:52;;;;;;;24.87;4.10;;;39.10;1.00;;;;;;5023505;28;20475;-56
2022/05/15 07:03:19;;;;;;;25.97;4.37;;;39.40;1.00;;;;;;5025675;28;20459;-58
2022/05/15 07:05:46;;;;;;;23.90;4.23;;;39.80;1.00;;;;;;5025627;28;20673;-58
2022/05/15 07:08:15;;;;;;;24.60;4.10;;;40.00;1.00;;;;;;5026370;28;20487;-58
2022/05/15 07:10:42;;;;;;;24.43;4.40;;;40.30;1.00;;;;;;5022887;28;21291;-58
2022/05/15 07:13:08;;;;;;;25.73;4.03;;;40.50;1.00;;;;;;5019967;28;20477;-57
2022/05/15 07:15:37;;;;;;;23.73;4.87;;;40.90;1.00;;;;;;5020112;28;20473;-57
2022/05/15 07:18:05;;;;;;;26.63;4.40;;;41.20;1.00;;;;;;5023631;28;20483;-58
2022/05/15 07:20:32;;;;;;;23.97;4.90;;;41.60;1.00;;;;;;5024757;28;20460;-59
2022/05/15 07:22:59;;;;;;;24.37;4.10;;;41.90;1.00;;;;;;5022161;28;20526;-58
2022/05/15 07:25:26;;;;;;;23.00;3.40;;;42.20;1.00;;;;;;5024125;28;20467;-58
2022/05/15 07:27:53;;;;;;;25.50;4.23;;;42.50;1.00;;;;;;5024409;28;20486;-59
2022/05/15 07:30:20;;;;;;;22.80;4.20;;;42.70;1.00;;;;;;5023530;28;20473;-58
2022/05/15 07:32:48;;;;;;;25.17;3.90;;;42.90;1.00;;;;;;5024067;28;21832;-57
2022/05/15 07:35:17;;;;;;;24.47;4.27;;;43.20;1.00;;;;;;5025632;28;20467;-57
2022/05/15 07:37:43;;;;;;;24.27;4.00;;;43.50;1.00;;;;;;5023251;28;20478;-59
2022/05/15 07:40:12;;;;;;;24.63;4.67;;;43.90;1.00;;;;;;5025634;28;20850;-58
2022/05/15 07:42:38;;;;;;;24.30;4.60;;;43.90;1.00;;;;;;5021006;28;20458;-59
2022/05/15 07:45:07;;;;;;;22.80;3.37;;;44.20;1.00;;;;;;5025929;28;21048;-57
2022/05/15 07:47:33;;;;;;;23.50;4.20;;;44.60;1.00;;;;;;5026051;28;20498;-58
2022/05/15 07:50:02;;;;;;;26.87;4.00;;;44.70;1.00;;;;;;5024446;28;20458;-60
2022/05/15 07:52:28;;;;;;;23.80;4.23;;;44.80;1.00;;;;;;5028319;28;20494;-59
2022/05/15 07:54:55;;;;;;;24.70;3.90;;;45.00;1.00;;;;;;5026035;28;20499;-57
2022/05/15 07:57:22;;;;;;;22.93;4.07;;;45.30;1.00;;;;;;5029859;28;20475;-58
2022/05/15 07:59:49;;;;;;;22.90;4.33;;;45.60;1.00;;;;;;5028827;28;20502;-57
2022/05/15 08:02:15;;;;;;;26.70;4.40;;;46.00;1.00;;;;;;5028738;28;20483;-59
2022/05/15 08:10:12;;;;;;;23.10;4.10;;;46.80;1.00;;;;;;5029136;28;21138;-56
2022/05/15 08:12:39;;;;;;;22.97;3.90;;;47.10;1.00;;;;;;5028646;28;20510;-56
2022/05/15 08:15:08;;;;;;;21.80;3.90;;;47.30;1.00;;;;;;5026765;28;20480;-59
2022/05/15 08:17:35;;;;;;;23.30;4.00;;;47.50;1.00;;;;;;5028565;28;21271;-61
2022/05/15 08:25:32;;;;;;;22.70;3.93;;;48.50;1.00;;;;;;5029188;28;20470;-54
2022/05/15 08:27:58;;;;;;;23.23;4.67;;;48.70;1.00;;;;;;5025745;28;20483;-57
2022/05/15 08:30:26;;;;;;;22.00;4.20;;;48.90;1.00;;;;;;5028784;28;20458;-56
2022/05/15 08:32:54;;;;;;;22.97;4.63;;;49.10;1.00;;;;;;5025299;28;20491;-61
2022/05/15 08:35:21;;;;;;;22.30;4.30;;;48.70;1.00;;;;;;5020932;28;20467;-58
2022/05/15 08:37:49;;;;;;;24.43;3.80;;;48.80;1.00;;;;;;5025285;28;20490;-58
2022/05/15 08:40:27;;;;;;;22.37;4.03;;;49.10;1.00;;;;;;5028698;28;20467;-59
2022/05/15 08:42:56;;;;;;;23.43;4.07;;;49.40;1.00;;;;;;5024224;28;20608;-59
2022/05/15 08:45:26;;;;;;;22.97;4.40;;;49.70;1.00;;;;;;5021689;28;20467;-59
2022/05/15 08:48:02;;;;;;;21.93;4.10;;;49.80;1.00;;;;;;5025462;28;20486;-58
2022/05/15 08:50:33;;;;;;;21.20;4.30;;;50.20;1.00;;;;;;5026839;28;20476;-60
2022/05/15 08:53:05;;;;;;;20.63;3.40;;;50.30;1.00;;;;;;5024971;28;20466;-59
2022/05/15 08:55:37;;;;;;;22.20;4.73;;;50.60;1.00;;;;;;5028680;28;20455;-59
2022/05/15 08:58:07;;;;;;;22.47;4.10;;;50.30;1.00;;;;;;5028090;28;20615;-60
2022/05/15 09:00:39;;;;;;;22.60;4.13;;;50.40;1.00;;;;;;5029400;28;20463;-60
2022/05/15 09:03:13;;;;;;;21.70;3.47;;;50.60;1.00;;;;;;5028828;28;20467;-60
2022/05/15 09:05:47;;;;;;;22.17;3.70;;;50.70;1.00;;;;;;5029053;28;20593;-58
2022/05/15 09:08:37;;;;;;;22.60;4.20;;;50.90;1.00;;;;;;5028170;28;20494;-58
2022/05/15 09:11:07;;;;;;;22.97;4.00;;;50.60;1.00;;;;;;5024887;28;20496;-61
2022/05/15 09:13:39;;;;;;;22.53;3.67;;;50.20;1.00;;;;;;5027134;28;20456;-57
2022/05/15 09:16:16;;;;;;;20.87;3.40;;;50.00;1.00;;;;;;5029135;28;20459;-58
2022/05/15 09:18:43;;;;;;;21.67;3.70;;;50.00;1.00;;;;;;5028343;28;21185;-60
2022/05/15 09:21:13;;;;;;;23.50;3.60;;;50.30;1.00;;;;;;5028806;28;20470;-60
2022/05/15 09:23:47;;;;;;;20.97;3.17;;;50.30;1.00;;;;;;5026384;28;21015;-61
2022/05/15 09:26:19;;;;;;;20.90;3.10;;;50.00;1.00;;;;;;5025357;28;20467;-56
2022/05/15 09:28:47;;;;;;;21.80;3.50;;;49.90;1.00;;;;;;5024092;28;20486;-56
2022/05/15 09:31:25;;;;;;;23.80;3.57;;;49.70;1.00;;;;;;5021201;28;20479;-59
2022/05/15 09:33:56;;;;;;;21.70;3.43;;;49.50;1.00;;;;;;5023306;28;20502;-58
2022/05/15 09:36:26;;;;;;;24.93;3.13;;;49.20;1.00;;;;;;5026478;28;20459;-59
2022/05/15 09:39:10;;;;;;;22.60;3.50;;;49.20;1.00;;;;;;5026295;28;20840;-59
2022/05/15 09:44:26;;;;;;;21.57;3.70;;;48.50;1.00;;;;;;5023098;28;20449;-58
2022/05/15 09:46:59;;;;;;;20.80;2.93;;;48.00;1.00;;;;;;5024822;28;20475;-59
2022/05/15 09:49:28;;;;;;;21.67;3.03;;;47.80;1.00;;;;;;5024474;28;20487;-59
2022/05/15 09:51:59;;;;;;;22.00;2.93;;;47.20;1.00;;;;;;5027322;28;20463;-58
2022/05/15 09:54:41;;;;;;;22.53;3.40;;;45.50;1.00;;;;;;5024540;28;20471;-59
2022/05/15 09:57:15;;;;;;;24.57;3.03;;;43.40;1.00;;;;;;5025619;28;20494;-58
2022/05/15 09:59:43;;;;;;;23.73;3.70;;;41.60;1.00;;;;;;5026037;28;20560;-59
2022/05/15 10:02:18;;;;;;;25.40;3.33;;;40.30;1.00;;;;;;5025714;28;20474;-59
2022/05/15 10:04:49;;;;;;;24.10;3.60;;;38.60;1.00;;;;;;5023011;28;21188;-57
2022/05/15 10:07:31;;;;;;;23.80;3.47;;;37.20;1.00;;;;;;5025310;28;20487;-58
2022/05/15 10:10:12;;;;;;;24.07;3.73;;;35.90;1.00;;;;;;5024458;28;20458;-59
2022/05/15 10:12:40;;;;;;;24.93;4.30;;;34.80;1.00;;;;;;5019407;28;20462;-58
2022/05/15 10:15:09;;;;;;;24.17;2.77;;;33.90;1.00;;;;;;5022290;28;20574;-57
2022/05/15 10:17:43;;;;;;;24.20;3.07;;;33.20;1.00;;;;;;5025156;28;20482;-58
2022/05/15 10:20:20;;;;;;;25.17;4.03;;;32.70;1.00;;;;;;5027765;28;20459;-58
2022/05/15 10:22:52;;;;;;;25.63;3.40;;;32.30;1.00;;;;;;5025639;28;20462;-59
2022/05/15 10:25:24;;;;;;;24.60;3.63;;;32.00;1.00;;;;;;5022268;28;21020;-58
2022/05/15 10:27:55;;;;;;;24.00;3.30;;;31.50;1.00;;;;;;5025842;28;20490;-59
2022/05/15 10:30:30;;;;;;;24.90;3.53;;;31.10;1.00;;;;;;5021163;28;20463;-58
2022/05/15 10:33:00;;;;;;;25.80;3.93;;;30.90;1.00;;;;;;5022175;28;20462;-57
2022/05/15 10:35:36;;;;;;;31.00;4.00;;;30.60;1.00;;;;;;5023562;28;20497;-58
2022/05/15 10:38:12;;;;;;;25.57;3.13;;;30.20;1.00;;;;;;5026168;28;21008;-58
2022/05/15 10:40:46;;;;;;;27.50;3.87;;;29.80;1.00;;;;;;5025381;28;21429;-58
2022/05/15 10:43:29;;;;;;;26.43;4.27;;;29.40;1.00;;;;;;5026881;28;21027;-59
2022/05/15 10:46:02;;;;;;;27.80;3.90;;;29.10;1.00;;;;;;5024185;28;20474;-58
2022/05/15 10:48:42;;;;;;;27.80;3.53;;;28.90;1.00;;;;;;5026035;28;20482;-58
2022/05/15 10:51:17;;;;;;;26.63;3.10;;;28.80;1.80;;;;;;5023610;28;20467;-60
2022/05/15 10:59:51;;;;;;;26.53;3.90;;;28.40;1.00;;;;;;5021869;28;20513;-61
2022/05/15 11:02:47;;;;;;;27.07;3.60;;;28.20;1.00;;;;;;5025006;28;20467;-58
2022/05/15 11:05:20;;;;;;;27.57;3.43;;;28.00;2.20;;;;;;5010906;28;20463;-60
2022/05/15 11:07:53;;;;;;;28.80;3.67;;;28.00;2.90;;;;;;5021404;28;21053;-59
2022/05/15 11:10:25;;;;;;;26.10;3.90;;;27.90;1.60;;;;;;5023039;28;20467;-60
2022/05/15 11:13:04;;;;;;;26.30;3.40;;;27.70;1.00;;;;;;5022073;28;20451;-60
2022/05/15 11:16:00;;;;;;;26.87;3.60;;;27.50;1.00;;;;;;5024542;28;20572;-60
2022/05/15 11:18:46;;;;;;;26.40;3.83;;;27.40;1.00;;;;;;5019390;28;20482;-59
2022/05/15 11:21:18;;;;;;;26.60;3.20;;;27.20;2.90;;;;;;5025215;28;21106;-59
2022/05/15 11:23:53;;;;;;;27.00;4.13;;;27.10;3.60;;;;;;5020924;28;20470;-60
2022/05/15 11:26:26;;;;;;;27.20;4.60;;;27.10;4.10;;;;;;5023591;28;20537;-60
2022/05/15 11:28:58;;;;;;;27.07;3.70;;;27.00;4.20;;;;;;5026470;28;20498;-59
2022/05/15 11:31:36;;;;;;;29.00;3.00;;;27.00;2.20;;;;;;5028644;28;20466;-59
2022/05/15 11:34:05;;;;;;;26.60;3.30;;;26.90;1.00;;;;;;5030089;28;20470;-59
2022/05/15 11:36:38;;;;;;;25.63;3.40;;;26.80;2.40;;;;;;5029629;28;20454;-57
2022/05/15 11:39:22;;;;;;;25.33;3.40;;;26.80;3.70;;;;;;5028418;28;20520;-60
2022/05/15 11:42:14;;;;;;;26.37;3.10;;;26.90;2.60;;;;;;5028755;28;20489;-59
2022/05/15 11:44:46;;;;;;;27.93;3.97;;;26.90;3.60;;;;;;5029053;28;20462;-59
2022/05/15 11:47:32;;;;;;;26.00;3.40;;;26.90;4.20;;;;;;5029881;28;20521;-58
2022/05/15 11:50:09;;;;;;;25.60;3.30;;;26.80;3.00;;;;;;5028928;28;20745;-58
2022/05/15 11:52:40;;;;;;;29.07;3.80;;;26.80;4.20;;;;;;5029005;28;21152;-59
2022/05/15 11:55:43;;;;;;;27.30;3.40;;;26.80;2.60;;;;;;5030063;28;20473;-60
2022/05/15 11:58:30;;;;;;;26.10;2.80;;;26.70;2.90;;;;;;5028024;28;20474;-60
2022/05/15 12:01:07;;;;;;;26.67;4.17;;;26.50;1.90;;;;;;5019918;28;20868;-61
2022/05/15 12:03:59;;;;;;;26.87;3.37;;;26.40;2.70;;;;;;5029283;28;20455;-59
2022/05/15 12:06:28;;;;;;;27.40;3.17;;;26.40;3.30;;;;;;5029172;28;20466;-59
2022/05/15 12:09:29;;;;;;;25.63;2.80;;;26.40;3.00;;;;;;5022198;28;20478;-59
2022/05/15 12:11:58;;;;;;;27.10;3.20;;;26.40;2.40;;;;;;5025642;28;20462;-59
2022/05/15 12:14:34;;;;;;;26.37;3.03;;;26.40;1.90;;;;;;5029543;28;20593;-58
2022/05/15 12:17:05;;;;;;;26.07;3.13;;;26.30;1.70;;;;;;5030136;28;20944;-59
2022/05/15 12:19:35;;;;;;;28.13;3.10;;;26.20;1.00;;;;;;5029128;28;20470;-59
2022/05/15 12:22:05;;;;;;;27.73;2.70;;;26.10;1.00;;;;;;5026460;28;20467;-59
2022/05/15 12:24:34;;;;;;;27.37;2.97;;;25.90;1.00;;;;;;5029950;28;20455;-58
2022/05/15 12:27:23;;;;;;;26.80;2.93;;;25.90;1.00;;;;;;5027070;28;21136;-56
2022/05/15 12:30:10;;;;;;;26.67;3.00;;;25.90;1.00;;;;;;5010034;28;20570;-59
2022/05/15 12:32:42;;;;;;;31.23;3.57;;;25.80;1.00;;;;;;5029819;28;20979;-59
2022/05/15 12:35:14;;;;;;;26.93;3.13;;;25.70;1.00;;;;;;5030156;28;20459;-58
2022/05/15 12:37:53;;;;;;;26.97;3.57;;;25.70;1.00;;;;;;5027555;28;20486;-59
2022/05/15 12:40:25;;;;;;;28.03;3.53;;;25.60;1.80;;;;;;5026991;28;20455;-59
2022/05/15 12:42:52;;;;;;;27.20;3.50;;;25.60;3.20;;;;;;5024839;28;20945;-59
2022/05/15 12:45:21;;;;;;;27.90;3.53;;;25.60;3.50;;;;;;5029266;28;20463;-58
2022/05/15 12:48:02;;;;;;;26.73;3.07;;;25.60;2.90;;;;;;5026068;28;20497;-57
2022/05/15 12:50:29;;;;;;;27.27;2.77;;;25.70;2.40;;;;;;5026778;28;21020;-58
2022/05/15 12:52:58;;;;;;;26.53;3.10;;;25.60;2.10;;;;;;5029149;28;20459;-58
2022/05/15 12:55:29;;;;;;;26.77;2.93;;;25.60;1.20;;;;;;5028391;28;20466;-59
2022/05/15 12:57:57;;;;;;;27.00;3.43;;;25.60;1.00;;;;;;5024717;28;20483;-59
2022/05/15 13:00:29;;;;;;;27.70;5.03;;;25.50;1.00;;;;;;5017626;28;20451;-57
2022/05/15 13:03:01;;;;;;;26.97;3.80;;;25.50;1.00;;;;;;5024872;28;20805;-57
2022/05/15 13:05:34;;;;;;;29.17;3.20;;;25.50;1.00;;;;;;5027126;28;20463;-58
2022/05/15 13:08:03;;;;;;;27.07;3.90;;;25.50;1.00;;;;;;5024404;28;21012;-58
2022/05/15 13:10:30;;;;;;;27.17;4.60;;;25.40;1.10;;;;;;5022676;28;20487;-58
2022/05/15 13:13:00;;;;;;;29.77;3.60;;;25.40;2.30;;;;;;5024453;28;20851;-58
2022/05/15 13:15:29;;;;;;;26.70;3.50;;;25.40;3.20;;;;;;5023885;28;20467;-57
2022/05/15 13:18:04;;;;;;;27.57;2.97;;;25.40;3.40;;;;;;5022372;28;20483;-58
2022/05/15 13:20:31;;;;;;;26.20;3.40;;;25.40;3.90;;;;;;5025301;28;20537;-59
2022/05/15 13:22:59;;;;;;;31.40;3.13;;;25.40;3.40;;;;;;5022870;28;20495;-58